Time;durP1;ratioP1;P1;durP2;ratioP2;P2;SDS_P1;SDS_P2;PMS_P1;PMS_P2;Temp;Humidity;BMP_temperature;BMP_pressure;BME280_temperature;BME280_humidity;BME280_pressure;Samples;Min_cycle;Max_cycle;Signal;HPM_P1;HPM_P2
2022/07/04 00:01:10;;;;;;;23.73;22.30;;;;;;;;;;5071346;28;20452;-69
2022/07/04 00:03:37;;;;;;;22.93;21.50;;;;;;;;;;5071653;28;20830;-68
2022/07/04 00:06:04;;;;;;;23.00;21.70;;;;;;;;;;5071685;28;20435;-68
2022/07/04 00:08:32;;;;;;;22.80;21.50;;;;;;;;;;5071354;28;20929;-68
2022/07/04 00:10:59;;;;;;;23.73;22.27;;;;;;;;;;5071388;28;20433;-68
2022/07/04 00:13:26;;;;;;;22.67;21.47;;;;;;;;;;5071313;28;20417;-68
2022/07/04 00:15:55;;;;;;;22.40;21.27;;;;;;;;;;5071402;28;20451;-70
2022/07/04 00:18:22;;;;;;;22.17;20.97;;;;;;;;;;5071214;28;20434;-69
2022/07/04 00:20:50;;;;;;;22.90;21.67;;;;;;;;;;5071280;28;20433;-69
2022/07/04 00:23:17;;;;;;;22.37;21.17;;;;;;;;;;5071140;28;20459;-69
2022/07/04 00:25:44;;;;;;;22.63;21.33;;;;;;;;;;5071469;28;20435;-69
2022/07/04 00:28:12;;;;;;;23.40;21.93;;;;;;;;;;5073975;28;20475;-69
2022/07/04 00:30:39;;;;;;;22.80;21.50;;;;;;;;;;5074566;28;20776;-69
2022/07/04 00:33:11;;;;;;;22.23;21.03;;;;;;;;;;5075069;28;20418;-69
2022/07/04 00:35:39;;;;;;;23.30;22.00;;;;;;;;;;5074526;28;20918;-69
2022/07/04 00:38:06;;;;;;;23.20;22.00;;;;;;;;;;5074912;28;20452;-68
2022/07/04 00:40:33;;;;;;;22.80;21.60;;;;;;;;;;5074424;28;20461;-68
2022/07/04 00:43:02;;;;;;;23.50;22.10;;;;;;;;;;5074322;28;20463;-69
2022/07/04 00:45:29;;;;;;;24.37;22.87;;;;;;;;;;5074704;28;20434;-68
2022/07/04 00:47:56;;;;;;;24.37;23.07;;;;;;;;;;5074223;28;20415;-69
2022/07/04 00:50:25;;;;;;;24.67;23.37;;;;;;;;;;5074414;28;20410;-69
2022/07/04 00:52:53;;;;;;;22.80;21.20;;;;;;;;;;5074478;28;20472;-69
2022/07/04 00:55:21;;;;;;;23.03;21.63;;;;;;;;;;5074642;28;20412;-69
2022/07/04 00:57:48;;;;;;;22.47;21.20;;;;;;;;;;5074513;28;20780;-68
2022/07/04 01:00:17;;;;;;;22.43;21.23;;;;;;;;;;5074318;28;20449;-69
2022/07/04 01:02:44;;;;;;;22.40;21.20;;;;;;;;;;5074539;28;20430;-69
2022/07/04 01:05:12;;;;;;;23.33;21.73;;;;;;;;;;5074594;28;20834;-69
2022/07/04 01:07:40;;;;;;;23.30;21.90;;;;;;;;;;5074239;28;20475;-68
2022/07/04 01:10:08;;;;;;;22.53;21.33;;;;;;;;;;5074080;28;20413;-69
2022/07/04 01:12:36;;;;;;;23.37;22.07;;;;;;;;;;5073952;28;20946;-69
2022/07/04 01:15:03;;;;;;;22.80;21.30;;;;;;;;;;5074155;28;20442;-69
2022/07/04 01:17:31;;;;;;;23.17;21.97;;;;;;;;;;5073560;28;20411;-69
2022/07/04 01:19:58;;;;;;;24.40;23.00;;;;;;;;;;5073753;28;20456;-69
2022/07/04 01:22:27;;;;;;;22.20;21.10;;;;;;;;;;5073902;28;20448;-69
2022/07/04 01:24:54;;;;;;;22.50;21.30;;;;;;;;;;5073980;28;20462;-68
2022/07/04 01:27:21;;;;;;;22.90;21.50;;;;;;;;;;5073744;28;20884;-68
2022/07/04 01:29:49;;;;;;;23.10;21.80;;;;;;;;;;5073960;28;20852;-68
2022/07/04 01:32:17;;;;;;;22.00;20.80;;;;;;;;;;5073672;28;20424;-69
2022/07/04 01:34:44;;;;;;;22.10;21.00;;;;;;;;;;5073558;28;20435;-69
2022/07/04 01:37:11;;;;;;;22.33;21.13;;;;;;;;;;5073439;28;20484;-69
2022/07/04 01:39:40;;;;;;;23.00;21.47;;;;;;;;;;5073682;28;20444;-68
2022/07/04 01:42:08;;;;;;;23.07;21.77;;;;;;;;;;5073592;28;20440;-69
2022/07/04 01:44:35;;;;;;;23.60;22.30;;;;;;;;;;5073222;28;20698;-69
2022/07/04 01:47:02;;;;;;;23.37;22.10;;;;;;;;;;5073301;28;20435;-69
2022/07/04 01:49:30;;;;;;;23.33;21.83;;;;;;;;;;5073238;28;20418;-68
2022/07/04 01:51:57;;;;;;;23.80;22.50;;;;;;;;;;5073181;28;20417;-69
2022/07/04 01:54:26;;;;;;;24.43;22.93;;;;;;;;;;5073507;28;20412;-69
2022/07/04 01:56:55;;;;;;;22.80;21.60;;;;;;;;;;5073435;28;20438;-69
2022/07/04 02:01:29;;;;;;;21.83;20.73;;;;;;;;;;5073485;28;20418;-69
2022/07/04 02:02:08;;;;;;;22.63;21.40;;;;;;;;;;5072993;28;20426;-69
2022/07/04 02:04:36;;;;;;;23.17;21.97;;;;;;;;;;5072966;28;20506;-69
2022/07/04 02:07:03;;;;;;;22.60;21.40;;;;;;;;;;5072981;28;20764;-68
2022/07/04 02:09:30;;;;;;;23.83;22.53;;;;;;;;;;5073045;28;20410;-69
2022/07/04 02:14:44;;;;;;;22.27;21.17;;;;;;;;;;5072875;28;20896;-69
2022/07/04 02:17:11;;;;;;;22.47;21.30;;;;;;;;;;5072904;28;20469;-69
2022/07/04 02:19:38;;;;;;;22.63;21.43;;;;;;;;;;5072655;28;20501;-69
2022/07/04 02:22:06;;;;;;;22.77;21.57;;;;;;;;;;5072688;28;20448;-69
2022/07/04 02:24:34;;;;;;;23.20;21.90;;;;;;;;;;5072506;28;20460;-69
2022/07/04 02:27:03;;;;;;;22.80;21.50;;;;;;;;;;5072620;28;20443;-68
2022/07/04 02:29:30;;;;;;;22.30;21.17;;;;;;;;;;5072259;28;20445;-69
2022/07/04 02:31:57;;;;;;;23.07;21.87;;;;;;;;;;5072655;28;20425;-69
2022/07/04 02:34:25;;;;;;;22.17;21.07;;;;;;;;;;5072295;28;20469;-69
2022/07/04 02:36:52;;;;;;;23.40;22.00;;;;;;;;;;5072165;28;20521;-69
2022/07/04 02:39:19;;;;;;;23.80;22.50;;;;;;;;;;5072377;28;20476;-68
2022/07/04 02:41:47;;;;;;;23.27;21.97;;;;;;;;;;5072594;28;20431;-68
2022/07/04 02:44:15;;;;;;;23.63;22.03;;;;;;;;;;5072569;28;20506;-69
2022/07/04 02:46:43;;;;;;;23.10;21.80;;;;;;;;;;5072591;28;20411;-69
2022/07/04 02:49:10;;;;;;;23.67;22.37;;;;;;;;;;5071715;28;20407;-69
2022/07/04 02:51:37;;;;;;;24.27;22.67;;;;;;;;;;5071959;28;20408;-69
2022/07/04 02:54:04;;;;;;;23.03;21.73;;;;;;;;;;5071838;28;20778;-69
2022/07/04 02:56:32;;;;;;;22.90;21.40;;;;;;;;;;5072436;28;20513;-69
2022/07/04 02:58:59;;;;;;;23.67;22.37;;;;;;;;;;5072277;28;20463;-69
2022/07/04 03:01:28;;;;;;;22.93;21.70;;;;;;;;;;5072000;28;20407;-69
2022/07/04 03:03:56;;;;;;;23.70;22.40;;;;;;;;;;5071891;28;20477;-69
2022/07/04 03:06:23;;;;;;;23.03;21.83;;;;;;;;;;5071682;28;20432;-69
2022/07/04 03:08:52;;;;;;;23.40;22.00;;;;;;;;;;5071861;28;20404;-69
2022/07/04 03:11:19;;;;;;;22.80;21.50;;;;;;;;;;5071788;28;20444;-69
2022/07/04 03:13:47;;;;;;;23.60;22.20;;;;;;;;;;5071841;28;20896;-67
2022/07/04 03:16:14;;;;;;;22.93;21.73;;;;;;;;;;5072059;28;20435;-68
2022/07/04 03:18:43;;;;;;;22.67;21.47;;;;;;;;;;5071799;28;20428;-69
2022/07/04 03:21:10;;;;;;;23.63;22.30;;;;;;;;;;5071872;28;20430;-69
2022/07/04 03:23:37;;;;;;;23.10;21.73;;;;;;;;;;5072043;28;20432;-68
2022/07/04 03:26:05;;;;;;;23.13;21.60;;;;;;;;;;5072263;28;20436;-69
2022/07/04 03:28:32;;;;;;;22.80;21.60;;;;;;;;;;5072023;28;21285;-69
2022/07/04 03:30:59;;;;;;;22.97;21.67;;;;;;;;;;5072097;28;20494;-69
2022/07/04 03:33:27;;;;;;;23.33;22.07;;;;;;;;;;5071892;28;20432;-69
2022/07/04 03:35:55;;;;;;;22.30;21.20;;;;;;;;;;5071587;28;20876;-69
2022/07/04 03:38:23;;;;;;;23.20;22.10;;;;;;;;;;5071680;28;20888;-68
2022/07/04 03:40:50;;;;;;;23.10;21.90;;;;;;;;;;5071801;28;20427;-69
2022/07/04 03:43:17;;;;;;;24.07;22.77;;;;;;;;;;5071613;28;20414;-69
2022/07/04 03:45:44;;;;;;;23.17;21.77;;;;;;;;;;5071513;28;20987;-69
2022/07/04 03:48:12;;;;;;;22.80;21.60;;;;;;;;;;5071801;28;20410;-69
2022/07/04 03:50:39;;;;;;;23.03;21.60;;;;;;;;;;5071633;28;20860;-69
2022/07/04 03:53:09;;;;;;;22.23;21.03;;;;;;;;;;5071453;28;20824;-69
2022/07/04 03:55:36;;;;;;;22.50;21.20;;;;;;;;;;5071555;28;20426;-69
2022/07/04 03:58:04;;;;;;;23.87;22.27;;;;;;;;;;5071457;28;20942;-69
2022/07/04 04:00:31;;;;;;;23.23;21.90;;;;;;;;;;5071378;28;20908;-69
2022/07/04 04:02:58;;;;;;;22.43;21.13;;;;;;;;;;5074419;28;20406;-69
2022/07/04 04:05:30;;;;;;;22.80;21.40;;;;;;;;;;5075221;28;20489;-69
2022/07/04 04:07:58;;;;;;;22.37;21.17;;;;;;;;;;5075260;28;20513;-69
2022/07/04 04:10:27;;;;;;;21.80;20.60;;;;;;;;;;5075095;28;20411;-69
2022/07/04 04:12:54;;;;;;;23.23;21.60;;;;;;;;;;5075371;28;20413;-69
2022/07/04 04:15:22;;;;;;;23.20;21.90;;;;;;;;;;5075397;28;20511;-69
2022/07/04 04:17:49;;;;;;;23.03;21.67;;;;;;;;;;5075335;28;20798;-69
2022/07/04 04:20:16;;;;;;;23.00;21.67;;;;;;;;;;5075084;28;20456;-69
2022/07/04 04:22:44;;;;;;;22.20;20.90;;;;;;;;;;5074889;28;20780;-69
2022/07/04 04:25:11;;;;;;;22.53;21.33;;;;;;;;;;5075176;28;20475;-69
2022/07/04 04:27:40;;;;;;;22.40;21.20;;;;;;;;;;5075127;28;20796;-69
2022/07/04 04:30:08;;;;;;;22.30;21.10;;;;;;;;;;5074831;28;20442;-69
2022/07/04 04:32:35;;;;;;;22.00;20.63;;;;;;;;;;5075028;28;20440;-69
2022/07/04 04:35:02;;;;;;;22.37;21.07;;;;;;;;;;5074800;28;20415;-69
2022/07/04 04:37:30;;;;;;;21.50;20.30;;;;;;;;;;5074641;28;20776;-69
2022/07/04 04:39:57;;;;;;;22.47;21.17;;;;;;;;;;5074819;28;20414;-69
2022/07/04 04:42:25;;;;;;;22.43;21.20;;;;;;;;;;5074525;28;20443;-69
2022/07/04 04:44:54;;;;;;;23.33;21.50;;;;;;;;;;5074745;28;20478;-69
2022/07/04 04:47:21;;;;;;;23.93;22.33;;;;;;;;;;5074704;28;20406;-69
2022/07/04 04:49:48;;;;;;;23.10;21.70;;;;;;;;;;5074771;28;20439;-69
2022/07/04 04:52:16;;;;;;;23.17;21.87;;;;;;;;;;5074334;28;20411;-69
2022/07/04 04:54:43;;;;;;;23.93;22.53;;;;;;;;;;5074355;28;20441;-69
2022/07/04 04:57:10;;;;;;;24.90;23.33;;;;;;;;;;5074502;28;20445;-69
2022/07/04 04:59:38;;;;;;;25.23;23.50;;;;;;;;;;5074554;28;20414;-69
2022/07/04 05:02:06;;;;;;;26.27;24.67;;;;;;;;;;5074161;28;20411;-69
2022/07/04 05:04:34;;;;;;;27.17;25.57;;;;;;;;;;5074127;28;20546;-69
2022/07/04 05:07:01;;;;;;;27.17;25.27;;;;;;;;;;5074185;28;20418;-69
2022/07/04 05:09:28;;;;;;;28.07;26.27;;;;;;;;;;5074191;28;20419;-69
2022/07/04 05:11:55;;;;;;;28.17;26.47;;;;;;;;;;5074358;28;20439;-69
2022/07/04 05:14:23;;;;;;;25.77;24.27;;;;;;;;;;5073623;28;20428;-69
2022/07/04 05:16:50;;;;;;;26.13;24.50;;;;;;;;;;5074066;28;20427;-69
2022/07/04 05:19:19;;;;;;;28.93;26.93;;;;;;;;;;5073790;28;20796;-72
2022/07/04 05:21:46;;;;;;;27.53;25.73;;;;;;;;;;5073727;28;20471;-70
2022/07/04 05:24:13;;;;;;;27.87;25.93;;;;;;;;;;5074008;28;20444;-69
2022/07/04 05:26:41;;;;;;;27.97;26.27;;;;;;;;;;5074287;28;20418;-69
2022/07/04 05:29:08;;;;;;;29.07;26.93;;;;;;;;;;5074486;28;20443;-69
2022/07/04 05:31:35;;;;;;;27.40;25.70;;;;;;;;;;5073845;28;20408;-69
2022/07/04 05:34:03;;;;;;;29.27;27.13;;;;;;;;;;5074324;28;20441;-72
2022/07/04 05:36:32;;;;;;;28.20;26.40;;;;;;;;;;5074100;28;20475;-68
2022/07/04 05:38:59;;;;;;;28.10;26.40;;;;;;;;;;5074133;28;20433;-68
2022/07/04 05:41:27;;;;;;;28.77;26.97;;;;;;;;;;5074112;28;20879;-69
2022/07/04 05:43:54;;;;;;;29.70;27.80;;;;;;;;;;5073949;28;20780;-68
2022/07/04 05:46:21;;;;;;;30.83;28.53;;;;;;;;;;5074098;28;20459;-68
2022/07/04 05:48:49;;;;;;;29.10;27.30;;;;;;;;;;5073653;28;20893;-68
2022/07/04 05:51:16;;;;;;;31.57;29.37;;;;;;;;;;5074056;28;20416;-69
2022/07/04 05:53:44;;;;;;;30.80;28.80;;;;;;;;;;5074017;28;20443;-69
2022/07/04 05:56:12;;;;;;;31.70;29.40;;;;;;;;;;5074029;28;20421;-69
2022/07/04 05:58:40;;;;;;;30.77;28.77;;;;;;;;;;5073787;28;20456;-68
2022/07/04 06:01:08;;;;;;;31.50;29.40;;;;;;;;;;5073980;28;20497;-69
2022/07/04 06:03:36;;;;;;;30.80;28.87;;;;;;;;;;5073520;28;20861;-66
2022/07/04 06:06:04;;;;;;;30.03;28.13;;;;;;;;;;5073710;28;20518;-66
2022/07/04 06:08:31;;;;;;;30.20;28.20;;;;;;;;;;5073893;28;20445;-66
2022/07/04 06:11:00;;;;;;;30.50;28.60;;;;;;;;;;5073495;28;20420;-67
2022/07/04 06:13:27;;;;;;;30.07;27.77;;;;;;;;;;5073289;28;20445;-66
2022/07/04 06:15:55;;;;;;;31.13;28.90;;;;;;;;;;5073462;28;20990;-66
2022/07/04 06:18:22;;;;;;;30.93;28.90;;;;;;;;;;5073133;28;20905;-67
2022/07/04 06:20:49;;;;;;;31.27;29.17;;;;;;;;;;5073228;28;20775;-67
2022/07/04 06:23:16;;;;;;;30.83;28.73;;;;;;;;;;5073448;28;20468;-67
2022/07/04 06:25:44;;;;;;;29.10;27.27;;;;;;;;;;5072732;28;20819;-67
2022/07/04 06:28:12;;;;;;;28.73;26.93;;;;;;;;;;5073402;28;20420;-71
2022/07/04 06:30:40;;;;;;;28.27;26.27;;;;;;;;;;5073002;28;20943;-67
2022/07/04 06:33:07;;;;;;;27.67;25.87;;;;;;;;;;5073247;28;20427;-67
2022/07/04 06:35:46;;;;;;;29.13;27.20;;;;;;;;;;5072946;28;20402;-67
2022/07/04 06:38:13;;;;;;;29.23;27.23;;;;;;;;;;5072976;28;20778;-69
2022/07/04 06:40:41;;;;;;;29.10;26.97;;;;;;;;;;5072896;28;20414;-69
2022/07/04 06:43:08;;;;;;;28.07;25.90;;;;;;;;;;5073061;28;20456;-69
2022/07/04 06:45:38;;;;;;;29.33;27.23;;;;;;;;;;5072930;28;20482;-69
2022/07/04 06:48:06;;;;;;;27.50;25.60;;;;;;;;;;5072368;28;20422;-68
2022/07/04 06:50:34;;;;;;;28.30;26.20;;;;;;;;;;5072191;28;20405;-68
2022/07/04 06:53:02;;;;;;;28.73;26.90;;;;;;;;;;5072056;28;20408;-68
2022/07/04 06:55:39;;;;;;;28.57;26.67;;;;;;;;;;5072472;28;20442;-68
2022/07/04 06:58:07;;;;;;;26.97;24.97;;;;;;;;;;5072348;28;20434;-69
2022/07/04 07:00:35;;;;;;;26.83;24.93;;;;;;;;;;5071829;28;20486;-68
2022/07/04 07:03:05;;;;;;;26.63;25.03;;;;;;;;;;5072023;28;20537;-68
2022/07/04 07:05:34;;;;;;;27.90;26.10;;;;;;;;;;5071838;28;20462;-68
2022/07/04 07:08:02;;;;;;;27.30;25.13;;;;;;;;;;5071929;28;20420;-68
2022/07/04 07:10:32;;;;;;;26.20;24.57;;;;;;;;;;5072312;28;20728;-68
2022/07/04 07:13:00;;;;;;;26.57;24.77;;;;;;;;;;5072080;28;20449;-68
2022/07/04 07:15:28;;;;;;;23.70;22.10;;;;;;;;;;5071968;28;20432;-69
2022/07/04 07:17:56;;;;;;;23.73;22.43;;;;;;;;;;5071688;28;20422;-68
2022/07/04 07:20:25;;;;;;;25.03;23.43;;;;;;;;;;5071572;28;20551;-68
2022/07/04 07:22:54;;;;;;;26.30;24.53;;;;;;;;;;5070434;28;20427;-68
2022/07/04 07:25:22;;;;;;;24.63;23.13;;;;;;;;;;5070342;28;20447;-68
2022/07/04 07:27:50;;;;;;;824.70;751.13;;;;;;;;;;5071751;28;20912;-69
2022/07/04 07:30:18;;;;;;;689.43;638.93;;;;;;;;;;5071980;28;20524;-69
2022/07/04 07:32:46;;;;;;;23.80;22.37;;;;;;;;;;5071773;28;20442;-69
2022/07/04 07:35:14;;;;;;;24.60;23.20;;;;;;;;;;5072123;28;20476;-71
2022/07/04 07:37:43;;;;;;;24.50;22.90;;;;;;;;;;5084384;28;20460;-71
2022/07/04 07:40:11;;;;;;;24.27;22.87;;;;;;;;;;5076387;28;20436;-69
2022/07/04 07:42:39;;;;;;;23.53;22.13;;;;;;;;;;5076244;28;20452;-71
2022/07/04 07:45:07;;;;;;;23.80;22.50;;;;;;;;;;5076264;28;20451;-73
2022/07/04 07:47:34;;;;;;;25.27;23.77;;;;;;;;;;5076034;28;20936;-73
2022/07/04 07:50:03;;;;;;;25.33;23.90;;;;;;;;;;5076377;28;20473;-73
2022/07/04 07:52:31;;;;;;;23.57;22.07;;;;;;;;;;5076356;28;20454;-71
2022/07/04 07:55:00;;;;;;;24.43;23.03;;;;;;;;;;5076457;28;20441;-72
2022/07/04 07:57:28;;;;;;;24.30;23.00;;;;;;;;;;5092584;28;20418;-68
2022/07/04 07:59:58;;;;;;;24.37;22.97;;;;;;;;;;5096333;28;20410;-68
2022/07/04 08:05:09;;;;;;;24.17;22.77;;;;;;;;;;5095518;28;20472;-69
2022/07/04 08:07:38;;;;;;;435.13;401.83;;;;;;;;;;5095899;28;20473;-69
2022/07/04 08:10:12;;;;;;;416.50;384.93;;;;;;;;;;5095775;28;20475;-69
2022/07/04 08:12:39;;;;;;;24.50;23.10;;;;;;;;;;5095898;28;20439;-69
2022/07/04 08:15:07;;;;;;;647.17;600.63;;;;;;;;;;5092424;28;20909;-69
2022/07/04 08:17:35;;;;;;;286.40;268.23;;;;;;;;;;5084468;28;20449;-69
2022/07/04 08:20:02;;;;;;;561.23;515.47;;;;;;;;;;5078444;28;20518;-68
2022/07/04 08:22:30;;;;;;;775.90;709.17;;;;;;;;;;5075417;28;20816;-68
2022/07/04 08:24:57;;;;;;;23.70;22.30;;;;;;;;;;5074360;28;20468;-69
2022/07/04 08:27:28;;;;;;;23.50;22.10;;;;;;;;;;5075595;28;20448;-68
2022/07/04 08:30:00;;;;;;;22.90;21.60;;;;;;;;;;5075495;28;20520;-69
2022/07/04 08:32:31;;;;;;;23.20;21.70;;;;;;;;;;5075547;28;20429;-71
2022/07/04 08:35:00;;;;;;;23.27;21.87;;;;;;;;;;5075394;28;20816;-69
2022/07/04 08:37:29;;;;;;;24.70;22.77;;;;;;;;;;5075271;28;20451;-69
2022/07/04 08:40:02;;;;;;;24.33;22.80;;;;;;;;;;5075317;28;20473;-69
2022/07/04 08:42:32;;;;;;;24.43;22.93;;;;;;;;;;5075220;28;20403;-69
2022/07/04 08:45:06;;;;;;;23.87;22.33;;;;;;;;;;5075477;28;20452;-69
2022/07/04 08:47:38;;;;;;;23.20;21.90;;;;;;;;;;5074091;28;20407;-70
2022/07/04 08:50:10;;;;;;;23.83;22.37;;;;;;;;;;5075113;28;20408;-69
2022/07/04 08:52:39;;;;;;;25.07;23.67;;;;;;;;;;5075108;28;20463;-70
2022/07/04 09:00:40;;;;;;;24.27;22.63;;;;;;;;;;5074983;28;20829;-70
2022/07/04 09:03:07;;;;;;;24.23;22.83;;;;;;;;;;5075090;28;20419;-69
2022/07/04 09:05:35;;;;;;;24.23;22.93;;;;;;;;;;5075021;28;20443;-71
2022/07/04 09:08:03;;;;;;;24.73;23.17;;;;;;;;;;5075025;28;20444;-69
2022/07/04 09:10:30;;;;;;;25.10;23.50;;;;;;;;;;5074969;28;20449;-70
2022/07/04 09:12:59;;;;;;;24.60;23.10;;;;;;;;;;5074984;28;20521;-70
2022/07/04 09:15:27;;;;;;;23.00;21.60;;;;;;;;;;5074668;28;20885;-70
2022/07/04 09:17:54;;;;;;;24.80;23.40;;;;;;;;;;5074516;28;20937;-70
2022/07/04 09:20:22;;;;;;;26.33;24.93;;;;;;;;;;5074333;28;20978;-69
2022/07/04 09:22:51;;;;;;;25.83;24.43;;;;;;;;;;5074687;28;20426;-69
2022/07/04 09:25:18;;;;;;;25.27;23.97;;;;;;;;;;5074305;28;20876;-69
2022/07/04 09:27:47;;;;;;;26.30;24.70;;;;;;;;;;5074687;28;20408;-69
2022/07/04 09:30:16;;;;;;;26.00;24.60;;;;;;;;;;5074328;28;20502;-70
2022/07/04 09:32:44;;;;;;;26.37;24.93;;;;;;;;;;5079230;28;20780;-69
2022/07/04 09:35:12;;;;;;;24.70;23.10;;;;;;;;;;5082104;28;20408;-69
2022/07/04 09:37:41;;;;;;;24.23;22.93;;;;;;;;;;5085654;28;20459;-69
2022/07/04 09:40:09;;;;;;;24.57;23.13;;;;;;;;;;5082940;28;21015;-70
2022/07/04 09:42:38;;;;;;;25.10;23.60;;;;;;;;;;5084644;28;20406;-70
2022/07/04 09:45:06;;;;;;;24.43;22.93;;;;;;;;;;5090589;28;20434;-67
2022/07/04 09:47:35;;;;;;;24.60;23.20;;;;;;;;;;5094062;28;20494;-67
2022/07/04 09:50:03;;;;;;;24.40;23.10;;;;;;;;;;5094419;28;20439;-66
2022/07/04 09:52:32;;;;;;;23.97;22.67;;;;;;;;;;5094338;28;20437;-66
2022/07/04 09:55:06;;;;;;;24.50;23.20;;;;;;;;;;5093963;28;20406;-66
2022/07/04 09:57:34;;;;;;;23.67;22.37;;;;;;;;;;5093828;28;20444;-67
2022/07/04 10:00:20;;;;;;;24.33;22.60;;;;;;;;;;5092310;28;20910;-66
2022/07/04 10:02:51;;;;;;;23.13;21.83;;;;;;;;;;5093776;28;20439;-66
2022/07/04 10:05:23;;;;;;;24.27;22.87;;;;;;;;;;5093509;28;20903;-69
2022/07/04 10:07:51;;;;;;;23.57;21.90;;;;;;;;;;5093308;28;20551;-73
2022/07/04 10:10:24;;;;;;;25.00;23.50;;;;;;;;;;5093001;28;20496;-68
2022/07/04 10:12:56;;;;;;;24.20;22.70;;;;;;;;;;5093172;28;20449;-68
2022/07/04 10:15:26;;;;;;;517.77;470.63;;;;;;;;;;5092876;28;20486;-69
2022/07/04 10:17:57;;;;;;;24.20;22.80;;;;;;;;;;5092834;28;20451;-69
2022/07/04 10:20:26;;;;;;;24.77;23.27;;;;;;;;;;5092786;28;20458;-69
2022/07/04 10:22:54;;;;;;;24.60;23.10;;;;;;;;;;5093287;28;20422;-66
2022/07/04 10:25:23;;;;;;;24.43;23.03;;;;;;;;;;5092824;28;20947;-66
2022/07/04 10:27:53;;;;;;;23.83;22.33;;;;;;;;;;5092580;28;20502;-69
2022/07/04 10:30:25;;;;;;;24.07;22.57;;;;;;;;;;5092867;28;20490;-69
2022/07/04 10:33:00;;;;;;;24.60;23.00;;;;;;;;;;5092389;28;20851;-69
2022/07/04 10:35:46;;;;;;;23.90;22.60;;;;;;;;;;5092853;28;20962;-69
2022/07/04 10:38:14;;;;;;;23.77;22.47;;;;;;;;;;5093081;28;20502;-69
2022/07/04 10:40:49;;;;;;;26.47;24.43;;;;;;;;;;5093079;28;20829;-69
2022/07/04 10:43:37;;;;;;;23.73;22.40;;;;;;;;;;5093021;28;20498;-69
2022/07/04 10:46:19;;;;;;;24.40;23.00;;;;;;;;;;5092774;28;20466;-69
2022/07/04 10:48:51;;;;;;;24.23;22.90;;;;;;;;;;5092178;28;20450;-69
2022/07/04 10:51:33;;;;;;;24.73;23.33;;;;;;;;;;5092472;28;20556;-69
2022/07/04 10:54:01;;;;;;;25.07;23.60;;;;;;;;;;5093354;28;20489;-69
2022/07/04 10:56:43;;;;;;;137.30;129.53;;;;;;;;;;5093317;28;20429;-69
2022/07/04 10:59:15;;;;;;;25.00;23.53;;;;;;;;;;5092924;28;20461;-69
2022/07/04 11:01:53;;;;;;;24.90;23.40;;;;;;;;;;5092814;28;20426;-70
2022/07/04 11:04:39;;;;;;;23.80;22.43;;;;;;;;;;5092533;28;20444;-69
2022/07/04 11:07:08;;;;;;;24.27;22.83;;;;;;;;;;5092953;28;20483;-69
2022/07/04 11:09:35;;;;;;;24.10;22.80;;;;;;;;;;5092654;28;20422;-69
2022/07/04 11:12:04;;;;;;;23.67;22.27;;;;;;;;;;5092843;28;20438;-69
2022/07/04 11:14:36;;;;;;;24.67;23.10;;;;;;;;;;5093113;28;20484;-70
2022/07/04 11:17:04;;;;;;;24.70;23.30;;;;;;;;;;5092790;28;20535;-69
2022/07/04 11:19:31;;;;;;;25.23;23.63;;;;;;;;;;5092392;28;21027;-69
2022/07/04 11:22:00;;;;;;;26.30;24.63;;;;;;;;;;5092885;28;20776;-69
2022/07/04 11:24:29;;;;;;;23.87;22.27;;;;;;;;;;5093035;28;20420;-69
2022/07/04 11:26:58;;;;;;;23.57;22.20;;;;;;;;;;5092551;28;20504;-71
2022/07/04 11:29:25;;;;;;;24.70;23.20;;;;;;;;;;5092637;28;20439;-68
2022/07/04 11:31:54;;;;;;;24.77;23.47;;;;;;;;;;5092436;28;20415;-69
2022/07/04 11:34:21;;;;;;;24.77;23.37;;;;;;;;;;5093053;28;20463;-69
2022/07/04 11:36:50;;;;;;;24.97;23.47;;;;;;;;;;5092501;28;21050;-69
2022/07/04 11:39:19;;;;;;;25.33;23.93;;;;;;;;;;5092633;28;20452;-69
2022/07/04 11:47:20;;;;;;;220.43;208.13;;;;;;;;;;5092375;28;20453;-69
2022/07/04 11:49:48;;;;;;;24.77;23.37;;;;;;;;;;5092413;28;20811;-69
2022/07/04 11:52:16;;;;;;;23.57;22.13;;;;;;;;;;5092609;28;20444;-69
2022/07/04 11:54:45;;;;;;;24.13;22.77;;;;;;;;;;5092788;28;20423;-69
2022/07/04 11:57:15;;;;;;;25.50;24.10;;;;;;;;;;5092717;28;20408;-69
2022/07/04 11:59:42;;;;;;;24.80;23.30;;;;;;;;;;5092453;28;21000;-69
2022/07/04 12:02:14;;;;;;;382.57;363.80;;;;;;;;;;5092688;28;20452;-69
2022/07/04 12:04:42;;;;;;;639.97;604.20;;;;;;;;;;5092196;28;20440;-69
2022/07/04 12:07:13;;;;;;;25.03;23.60;;;;;;;;;;5092524;28;20535;-69
2022/07/04 12:09:41;;;;;;;24.50;23.10;;;;;;;;;;5092760;28;20415;-69
2022/07/04 12:12:09;;;;;;;24.70;23.30;;;;;;;;;;5092069;28;20788;-69
2022/07/04 12:14:38;;;;;;;25.60;24.20;;;;;;;;;;5092254;28;20415;-69
2022/07/04 12:17:15;;;;;;;24.50;22.80;;;;;;;;;;5092287;28;20407;-69
2022/07/04 12:19:55;;;;;;;24.00;22.70;;;;;;;;;;5092127;28;20458;-68
2022/07/04 12:22:30;;;;;;;26.27;24.77;;;;;;;;;;5092415;28;20437;-68
2022/07/04 12:24:57;;;;;;;25.90;24.40;;;;;;;;;;5096237;28;20447;-68
2022/07/04 12:27:25;;;;;;;25.47;23.87;;;;;;;;;;5095673;28;20451;-68
2022/07/04 12:29:54;;;;;;;24.80;23.40;;;;;;;;;;5090130;28;20440;-68
2022/07/04 12:32:22;;;;;;;23.70;22.30;;;;;;;;;;5095922;28;20470;-68
2022/07/04 12:34:49;;;;;;;23.63;22.33;;;;;;;;;;5096014;28;20418;-69
2022/07/04 12:37:17;;;;;;;25.00;23.50;;;;;;;;;;5096006;28;20408;-69
2022/07/04 12:39:46;;;;;;;25.07;23.67;;;;;;;;;;5095842;28;20438;-68
2022/07/04 12:42:14;;;;;;;24.93;23.53;;;;;;;;;;5095904;28;20442;-69
2022/07/04 12:44:42;;;;;;;24.73;23.33;;;;;;;;;;5095936;28;20454;-69
2022/07/04 12:47:11;;;;;;;25.30;23.90;;;;;;;;;;5095345;28;20455;-69
2022/07/04 12:49:43;;;;;;;26.10;24.63;;;;;;;;;;5095601;28;20413;-68
2022/07/04 12:52:11;;;;;;;25.73;23.97;;;;;;;;;;5095454;28;20410;-69
2022/07/04 12:54:39;;;;;;;25.67;24.20;;;;;;;;;;5095015;28;20439;-69
2022/07/04 12:57:07;;;;;;;26.13;24.53;;;;;;;;;;5095365;28;20464;-68
2022/07/04 12:59:35;;;;;;;26.20;24.70;;;;;;;;;;5095071;28;20495;-69
2022/07/04 13:02:02;;;;;;;25.33;23.70;;;;;;;;;;5095269;28;20452;-69
2022/07/04 13:04:34;;;;;;;24.20;22.70;;;;;;;;;;5094960;28;20429;-68
2022/07/04 13:07:02;;;;;;;25.87;24.37;;;;;;;;;;5094747;28;21058;-69
2022/07/04 13:09:29;;;;;;;23.77;22.37;;;;;;;;;;5095460;28;20416;-69
2022/07/04 13:14:42;;;;;;;24.30;22.60;;;;;;;;;;5095128;28;20412;-69
2022/07/04 13:17:09;;;;;;;24.90;23.57;;;;;;;;;;5094869;28;20404;-69
2022/07/04 13:19:38;;;;;;;26.30;24.80;;;;;;;;;;5094948;28;20472;-69
2022/07/04 13:22:05;;;;;;;25.50;24.00;;;;;;;;;;5095052;28;20877;-69
2022/07/04 13:24:32;;;;;;;25.57;24.03;;;;;;;;;;5094735;28;20437;-69
2022/07/04 13:27:00;;;;;;;25.07;23.57;;;;;;;;;;5094710;28;20440;-69
2022/07/04 13:29:27;;;;;;;24.70;23.17;;;;;;;;;;5094984;28;20447;-75
2022/07/04 13:31:54;;;;;;;24.00;22.70;;;;;;;;;;5094978;28;20420;-69
2022/07/04 13:34:22;;;;;;;24.00;22.57;;;;;;;;;;5094320;28;20759;-68
2022/07/04 13:36:54;;;;;;;25.20;23.40;;;;;;;;;;5094871;28;20440;-69
2022/07/04 13:39:23;;;;;;;24.13;22.63;;;;;;;;;;5094557;28;20791;-69
2022/07/04 13:41:51;;;;;;;23.07;21.73;;;;;;;;;;5094612;28;20520;-68
2022/07/04 13:44:18;;;;;;;24.87;23.27;;;;;;;;;;5094680;28;20441;-69
2022/07/04 13:46:45;;;;;;;24.47;23.07;;;;;;;;;;5094332;28;20436;-69
2022/07/04 13:49:12;;;;;;;23.87;22.47;;;;;;;;;;5094408;28;20494;-69
2022/07/04 13:51:40;;;;;;;24.43;22.87;;;;;;;;;;5094568;28;20547;-69
2022/07/04 13:54:09;;;;;;;23.60;22.20;;;;;;;;;;5094267;28;20412;-69
2022/07/04 13:56:37;;;;;;;24.10;22.60;;;;;;;;;;5094474;28;20429;-69
2022/07/04 13:59:04;;;;;;;24.20;22.70;;;;;;;;;;5094411;28;20409;-69
2022/07/04 14:01:32;;;;;;;24.40;22.90;;;;;;;;;;5094334;28;20496;-69
2022/07/04 14:03:59;;;;;;;23.37;21.97;;;;;;;;;;5093814;28;20441;-69
2022/07/04 14:06:26;;;;;;;24.23;22.83;;;;;;;;;;5094275;28;20444;-68
2022/07/04 14:08:56;;;;;;;24.50;22.90;;;;;;;;;;5093915;28;20987;-69
2022/07/04 14:11:24;;;;;;;23.97;22.67;;;;;;;;;;5094074;28;20404;-68
2022/07/04 14:13:52;;;;;;;23.73;22.23;;;;;;;;;;5094174;28;20407;-69
2022/07/04 14:16:19;;;;;;;25.07;23.47;;;;;;;;;;5093976;28;20457;-69
2022/07/04 14:18:46;;;;;;;24.93;23.53;;;;;;;;;;5093702;28;20463;-69
2022/07/04 14:21:13;;;;;;;24.20;22.60;;;;;;;;;;5093936;28;20408;-69
2022/07/04 14:23:41;;;;;;;24.47;23.07;;;;;;;;;;5093977;28;20405;-68
2022/07/04 14:26:09;;;;;;;24.00;22.60;;;;;;;;;;5093670;28;20916;-69
2022/07/04 14:28:38;;;;;;;24.67;23.17;;;;;;;;;;5093332;28;20529;-69
2022/07/04 14:31:06;;;;;;;23.10;21.80;;;;;;;;;;5093484;28;20465;-70
2022/07/04 14:33:33;;;;;;;25.07;23.60;;;;;;;;;;5093094;28;20447;-69
2022/07/04 14:36:01;;;;;;;24.53;22.97;;;;;;;;;;5093397;28;20457;-75
2022/07/04 14:38:28;;;;;;;24.07;22.67;;;;;;;;;;5093672;28;20771;-69
2022/07/04 14:40:55;;;;;;;24.80;23.40;;;;;;;;;;5093610;28;20416;-69
2022/07/04 14:43:23;;;;;;;24.07;22.60;;;;;;;;;;5093626;28;20420;-69